Stations météo

réclame
Mon MeteoGroup
Villafranca, Espagne (8241): Température de l'air & dewpoint: 07.12.2017 00:00:00 - 13.12.2017 00:00:00 (CET)Villafranca, Espagne (8241): Vitesse du vent & gusts: 07.12.2017 00:00:00 - 13.12.2017 00:00:00 (CET)Villafranca, Espagne (8241): Direction du vent: 07.12.2017 00:00:00 - 13.12.2017 00:00:00 (CET)Villafranca, Espagne (8241): visibility: 07.12.2017 00:00:00 - 13.12.2017 00:00:00 (CET)Villafranca, Espagne (8241): Ensoleillement: 07.12.2017 00:00:00 - 13.12.2017 00:00:00 (CET)Villafranca, Espagne (8241): Quantités de précipitations: 07.12.2017 00:00:00 - 13.12.2017 00:00:00 (CET)
Date & Time tt [°C] td [°C] ff [km/h] ff [knt] fx [km/h] fx [knt] dd vv [km] sd [min] rr [mm]
13.12.2017 00:00:00 - - - - - - - - - -
12.12.2017 23:00:00 -2,5 -6,7 18 10 23 12 NW 20 0 0,0
12.12.2017 22:00:00 -1,0 -6,0 14 8 23 13 NW 20 0 0,0
12.12.2017 21:00:00 -0,7 -6,4 15 8 22 12 WNW 20 0 0,0
12.12.2017 20:00:00 -0,4 -7,1 11 6 22 12 NNW 20 0 0,0
12.12.2017 19:00:00 -0,2 -8,6 6 3 - - NNW 20 0 -
12.12.2017 18:00:00 1,2 -10,3 10 5 40 21 NW 20 8 0,0
12.12.2017 17:00:00 3,7 -13,9 24 13 44 24 NW 20 60 0,0
12.12.2017 16:00:00 5,1 -15,1 27 15 51 28 NW 20 60 0,0
12.12.2017 15:00:00 5,4 -13,3 31 17 52 28 NW 20 60 0,0
12.12.2017 14:00:00 5,0 -11,2 31 17 46 25 WNW 20 60 0,0
12.12.2017 13:00:00 4,7 -8,6 30 16 49 27 WNW 20 60 -
12.12.2017 12:00:00 3,5 -7,5 35 19 51 28 NW 20 60 0,0
12.12.2017 11:00:00 2,8 -6,7 35 19 47 26 NW 20 59 0,0
12.12.2017 10:00:00 0,0 -6,0 24 13 42 23 NW 20 0 0,0
12.12.2017 09:00:00 0,2 -5,4 23 12 41 22 NW 20 0 0,0
12.12.2017 08:00:00 0,4 -5,1 25 14 48 26 NW 20 0 0,0
12.12.2017 07:00:00 0,5 -4,8 26 14 42 23 NW 20 0 -
12.12.2017 06:00:00 0,4 -4,8 20 11 34 18 NW 20 0 0,0
12.12.2017 05:00:00 0,4 -3,9 21 12 35 19 NW 20 0 0,0
12.12.2017 04:00:00 0,6 -3,6 23 13 35 19 NW 20 0 0,0
12.12.2017 03:00:00 1,0 -2,5 22 12 32 17 NW 20 0 0,0
12.12.2017 02:00:00 1,1 -1,7 17 9 26 14 NW 20 0 0,0
12.12.2017 01:00:00 1,7 -2,0 19 10 - - NW 20 0 -
12.12.2017 00:00:00 2,3 -3,3 14 7 - - NW 20 0 0,0
11.12.2017 23:00:00 2,2 -3,6 - - - - - 20 0 0,0
11.12.2017 22:00:00 3,0 -3,9 - - - - - 20 0 0,0
11.12.2017 21:00:00 2,5 -3,9 21 11 32 18 WNW 20 0 0,0
11.12.2017 20:00:00 2,6 -4,2 16 9 27 15 NW 20 0 0,0
11.12.2017 19:00:00 3,4 -4,5 17 9 41 22 NW 20 0 -
11.12.2017 18:00:00 4,4 -4,2 28 15 48 26 W 20 0 0,0
11.12.2017 17:00:00 5,8 -4,5 24 13 39 21 W 20 49 0,0
11.12.2017 16:00:00 6,1 -2,2 18 10 44 24 WNW 20 18 0,0
11.12.2017 15:00:00 6,4 -1,7 31 17 54 29 W 20 4 0,0
11.12.2017 14:00:00 7,9 -2,2 24 13 43 23 W 20 28 0,0
11.12.2017 13:00:00 7,1 -3,3 29 16 - - W 20 0 -
11.12.2017 12:00:00 7,5 -1,7 16 9 33 18 W 20 0 0,0
11.12.2017 11:00:00 7,1 -1,4 19 11 35 19 W 20 0 0,0
11.12.2017 10:00:00 6,3 -0,7 22 12 46 25 W 20 0 0,0
11.12.2017 09:00:00 6,2 0,6 25 14 - - W 20 - -
11.12.2017 08:00:00 9,8 3,2 - - - - - 20 0 0,0
11.12.2017 07:00:00 10,7 2,9 - - - - - 20 0 -
11.12.2017 06:00:00 10,5 2,1 - - - - - 20 0 0,0
11.12.2017 05:00:00 10,4 2,5 - - - - - 20 0 0,0
11.12.2017 04:00:00 10,2 2,9 - - - - - 20 0 0,0
11.12.2017 03:00:00 9,2 2,5 17 9 - - S 20 0 0,0
11.12.2017 02:00:00 9,1 3,0 - - - - - 20 0 0,0
11.12.2017 01:00:00 9,1 3,0 21 12 - - SSW 20 0 -
11.12.2017 00:00:00 8,8 3,4 24 13 46 25 SSW 20 0 0,0
10.12.2017 23:00:00 8,7 3,0 13 7 29 16 S 20 0 0,0
10.12.2017 22:00:00 8,8 3,4 13 7 30 16 S 20 0 0,0
10.12.2017 21:00:00 8,0 2,9 6 4 16 9 SE 20 0 0,0
10.12.2017 20:00:00 8,6 2,1 5 3 60 33 SSW 20 0 0,0
10.12.2017 19:00:00 8,4 1,9 44 24 79 43 WSW 20 0 -
10.12.2017 18:00:00 9,4 1,5 45 24 74 40 WSW 20 0 0,0
10.12.2017 17:00:00 9,4 1,7 47 25 65 35 WSW 20 0 0,0
10.12.2017 16:00:00 9,9 2,1 10 6 58 31 ESE 20 0 0,0
10.12.2017 15:00:00 11,0 1,7 38 21 61 33 WSW 20 0 0,0
10.12.2017 14:00:00 11,8 1,7 37 20 54 29 W 20 3 0,0
10.12.2017 13:00:00 11,5 1,1 38 21 66 35 W 20 0 -
10.12.2017 12:00:00 11,2 0,6 37 20 75 41 W 20 15 0,0
10.12.2017 11:00:00 11,1 0,4 44 24 72 39 W 20 23 0,0
10.12.2017 10:00:00 10,2 1,1 38 21 68 37 W 20 49 0,0
10.12.2017 09:00:00 9,1 0,4 37 20 67 36 W 20 0 0,0
10.12.2017 08:00:00 8,9 0,6 43 23 65 35 W 20 0 0,0
10.12.2017 07:00:00 8,6 1,3 36 19 70 38 W 20 0 -
10.12.2017 06:00:00 8,6 0,9 26 14 51 27 WNW 20 0 0,0
10.12.2017 05:00:00 8,6 1,3 31 17 54 29 WNW 20 0 0,0
10.12.2017 04:00:00 8,9 1,7 35 19 61 33 W 20 0 0,0
10.12.2017 03:00:00 8,7 2,5 33 18 54 29 W 20 0 0,0
10.12.2017 02:00:00 8,8 2,9 31 17 55 30 W 20 0 0,0
10.12.2017 01:00:00 8,7 3,0 25 14 48 26 W 20 0 -
10.12.2017 00:00:00 8,9 3,2 14 7 42 23 W 20 0 0,0
09.12.2017 23:00:00 9,0 3,2 19 11 35 19 W 20 0 0,0
09.12.2017 22:00:00 8,6 3,0 13 7 32 17 W 20 0 0,0
09.12.2017 21:00:00 8,2 3,0 15 8 34 18 W 20 0 0,0
09.12.2017 20:00:00 7,9 2,3 14 7 37 20 W 20 0 0,0
09.12.2017 19:00:00 7,7 1,9 15 8 29 16 WNW 20 0 -
09.12.2017 18:00:00 7,2 0,6 9 5 16 9 WNW 20 0 0,0
09.12.2017 17:00:00 - - - - - - - - - -
09.12.2017 16:00:00 8,0 -3,9 9 5 31 17 NNW 20 43 0,0
09.12.2017 15:00:00 8,9 -4,8 14 7 27 14 NNW 20 60 0,0
09.12.2017 14:00:00 7,0 -3,0 14 7 27 14 NW 20 13 0,0
09.12.2017 13:00:00 3,6 -2,7 14 7 27 14 N 20 0 -
09.12.2017 12:00:00 2,7 -2,5 18 10 32 18 NNW 20 0 0,0
09.12.2017 11:00:00 2,2 -2,2 18 10 25 14 NNW 20 0 0,0
09.12.2017 10:00:00 1,9 -2,0 11 6 18 10 NNW 20 0 0,0
09.12.2017 09:00:00 1,3 -2,0 6 3 15 8 NNW 20 3 0,0
09.12.2017 08:00:00 0,9 -2,2 5 3 16 8 N 20 0 0,0
09.12.2017 07:00:00 1,6 -1,7 12 6 26 14 N 20 0 -
09.12.2017 06:00:00 2,2 -1,7 13 7 27 14 NNW 20 0 0,0
09.12.2017 05:00:00 3,0 -1,4 12 6 39 21 NW 20 0 0,0
09.12.2017 04:00:00 4,0 -1,2 15 8 43 23 WNW 20 0 0,0
09.12.2017 03:00:00 5,1 0,0 23 12 56 31 NW 20 0 0,0
09.12.2017 02:00:00 5,2 1,5 20 11 32 18 NNW 20 0 0,0
09.12.2017 01:00:00 5,6 2,1 3 2 19 10 NNE 20 0 -
09.12.2017 00:00:00 6,3 2,1 8 5 18 10 NNW 20 0 0,0
08.12.2017 23:00:00 6,6 2,3 7 4 25 13 NW 20 0 0,0
08.12.2017 22:00:00 7,5 2,1 13 7 26 14 NW 20 0 0,0
08.12.2017 21:00:00 7,5 2,3 14 8 32 17 WNW 20 0 0,0
08.12.2017 20:00:00 8,0 2,5 21 11 36 19 WNW 20 0 0,0
08.12.2017 19:00:00 7,5 2,9 6 3 24 13 NNW 20 0 -
08.12.2017 18:00:00 7,7 2,5 11 6 25 13 WNW 20 0 0,0
08.12.2017 17:00:00 8,8 2,9 18 10 34 18 WNW 20 10 0,0
08.12.2017 16:00:00 9,9 3,0 15 8 34 18 WNW 20 29 0,0
08.12.2017 15:00:00 9,4 2,5 23 12 40 22 WNW 20 0 0,0
08.12.2017 14:00:00 - - - - - - - - - -
08.12.2017 13:00:00 10,1 1,9 35 19 55 30 WNW 20 9 -
08.12.2017 12:00:00 10,9 2,3 29 16 42 23 NW 20 35 0,0
08.12.2017 11:00:00 8,8 1,7 23 12 39 21 WNW 20 0 0,0
08.12.2017 10:00:00 - - - - - - - - - -
08.12.2017 09:00:00 7,5 1,9 9 5 25 14 NW 20 0 0,0
08.12.2017 08:00:00 7,8 1,9 16 8 32 17 WNW 20 0 0,0
08.12.2017 07:00:00 7,8 1,3 21 11 37 20 WNW 20 0 -
08.12.2017 06:00:00 7,6 1,1 22 12 31 17 WNW 20 0 0,0
08.12.2017 05:00:00 7,4 1,3 26 14 41 22 WNW 20 0 0,0
08.12.2017 04:00:00 5,9 -1,0 14 8 27 14 WNW 20 0 0,0
08.12.2017 03:00:00 5,5 -4,5 10 5 23 12 NW 20 0 0,0
08.12.2017 02:00:00 0,3 -9,0 3 2 10 5 NNW 20 0 0,0
08.12.2017 01:00:00 -0,1 -10,8 4 2 10 6 E 20 0 -
08.12.2017 00:00:00 -0,7 -11,2 4 2 10 6 NW 20 0 0,0
07.12.2017 23:00:00 -0,6 -11,2 5 3 11 6 NNE 20 0 0,0
07.12.2017 22:00:00 -0,4 -11,2 5 3 11 6 NW 20 0 0,0
07.12.2017 21:00:00 0,4 -9,0 7 4 9 5 NNW 20 0 0,0
07.12.2017 20:00:00 2,1 -6,7 9 5 12 6 NW 20 0 0,0
07.12.2017 19:00:00 4,2 -5,1 4 2 6 3 WNW 20 0 -
07.12.2017 18:00:00 6,0 -3,9 1 1 9 5 NNE 20 0 0,0
07.12.2017 17:00:00 7,7 -3,6 7 4 12 7 SE 20 10 0,0
07.12.2017 16:00:00 9,4 -4,2 8 4 14 8 ESE 20 58 0,0
07.12.2017 15:00:00 9,1 -4,2 8 4 15 8 ESE 20 31 0,0
07.12.2017 14:00:00 10,0 -7,8 7 4 20 11 SE 20 40 0,0
07.12.2017 13:00:00 - - - - - - - - - -
07.12.2017 12:00:00 10,5 -11,7 5 3 10 5 N 20 60 0,0
07.12.2017 11:00:00 6,2 -11,7 3 2 9 5 WNW 20 60 0,0
07.12.2017 10:00:00 0,3 -9,9 3 2 9 5 W 20 59 0,0
07.12.2017 09:00:00 -3,9 -11,2 5 3 9 5 NW 20 24 0,0
07.12.2017 08:00:00 -6,2 -12,2 8 4 11 6 NW 20 0 0,0
07.12.2017 07:00:00 -6,5 -12,2 8 4 10 5 NW 20 0 -
07.12.2017 06:00:00 -6,0 -11,7 8 4 10 6 NW 20 0 0,0
07.12.2017 05:00:00 -5,8 -11,7 5 3 10 5 NW 20 0 0,0
07.12.2017 04:00:00 -5,5 -11,2 7 4 11 6 WNW 20 0 0,0
07.12.2017 03:00:00 -5,4 -10,8 6 3 9 5 NW 20 0 0,0
07.12.2017 02:00:00 -5,3 -10,3 6 4 8 4 NW 20 0 0,0
07.12.2017 01:00:00 -4,5 -9,9 4 2 9 5 NNW 20 0 -
07.12.2017 00:00:00 -4,1 -8,6 6 3 8 4 NW 20 0 0,0

tt = Température de l'air
td = dewpoint
ff = Vitesse du vent
fx = gusts
dd = Direction du vent
vv = visibility
sd = Ensoleillement
rr = Quantités de précipitations

stations d'obs. à proximité